Terminal Aerodrome Forecast
Issued by NWS Tulsa, OK

Home | Current Version | Previous Version | Text Only | Print | Product List | Glossary On
Versions: 1 2 3 4 5 6 7 8 9 10 11 12 13 14 15 16
000
FTUS44 KTSA 032300
TAFFSM
TAF
KFSM 032338Z 0400/0424 04007KT 1 1/2SM -RA BR BKN003 OVC012
      TEMPO 0400/0404 3SM BR SCT003 OVC012
     FM040400 05004KT 1 1/2SM -RA BR BKN003 OVC010
     FM041900 36011KT 2SM PL OVC010=

USA.gov is the U.S. government's official web portal to all federal, state and local government web resources and services.